Time;durP1;ratioP1;P1;durP2;ratioP2;P2;SDS_P1;SDS_P2;PMS_P1;PMS_P2;Temp;Humidity;BMP_temperature;BMP_pressure;BME280_temperature;BME280_humidity;BME280_pressure;Samples;Min_cycle;Max_cycle;Signal;HPM_P1;HPM_P2
2021/03/23 00:01:57;;;;;;;9.80;3.53;;;;;11.70;102421.00;;;;5086778;28;20198;-76
2021/03/23 00:04:24;;;;;;;4.63;2.67;;;;;11.70;102419.00;;;;5087508;28;20251;-76
2021/03/23 00:06:50;;;;;;;4.88;2.75;;;;;11.60;102423.00;;;;5088203;28;20256;-76
2021/03/23 00:09:17;;;;;;;3.92;2.63;;;;;11.50;102423.00;;;;5087771;28;20662;-76
2021/03/23 00:11:45;;;;;;;4.60;2.92;;;;;11.50;102425.00;;;;5086748;28;20240;-76
2021/03/23 00:14:13;;;;;;;4.55;2.90;;;;;11.50;102421.00;;;;5087877;28;20191;-76
2021/03/23 00:16:41;;;;;;;3.70;2.35;;;;;11.40;102419.00;;;;5077261;28;20664;-76
2021/03/23 00:19:09;;;;;;;3.72;2.47;;;;;11.40;102429.00;;;;5088208;28;20772;-76
2021/03/23 00:21:37;;;;;;;3.78;2.53;;;;;11.40;102422.00;;;;5087886;28;20690;-76
2021/03/23 00:24:06;;;;;;;5.72;2.45;;;;;11.40;102427.00;;;;5086965;28;20625;-76
2021/03/23 00:26:32;;;;;;;4.55;2.95;;;;;11.40;102427.00;;;;5088603;28;20191;-76
2021/03/23 00:29:00;;;;;;;3.10;2.35;;;;;11.40;102426.00;;;;5087480;28;20205;-76
2021/03/23 00:31:30;;;;;;;5.40;2.60;;;;;11.40;102420.00;;;;5081985;28;20205;-76
2021/03/23 00:33:57;;;;;;;4.03;2.65;;;;;11.40;102419.00;;;;5088230;28;20202;-76
2021/03/23 00:36:28;;;;;;;3.92;2.83;;;;;11.40;102414.00;;;;5087547;28;20271;-76
2021/03/23 00:38:56;;;;;;;3.72;2.55;;;;;11.50;102416.00;;;;5087800;28;20190;-76
2021/03/23 00:41:23;;;;;;;3.78;2.47;;;;;11.50;102417.00;;;;5077550;28;20590;-76
2021/03/23 00:43:50;;;;;;;3.65;2.30;;;;;11.50;102414.00;;;;5088343;28;20201;-76
2021/03/23 00:46:18;;;;;;;4.00;2.63;;;;;11.50;102416.00;;;;5085936;28;20213;-76
2021/03/23 00:48:44;;;;;;;2.78;2.30;;;;;11.60;102412.00;;;;5086828;28;20226;-76
2021/03/23 00:51:11;;;;;;;3.92;2.63;;;;;11.60;102409.00;;;;5087277;28;20194;-76
2021/03/23 00:56:23;;;;;;;4.15;2.78;;;;;11.60;102405.00;;;;5087183;28;20271;-76
2021/03/23 00:58:49;;;;;;;4.18;2.55;;;;;11.60;102416.00;;;;5087589;28;20201;-76
2021/03/23 01:01:17;;;;;;;3.78;2.78;;;;;11.70;102407.00;;;;5079069;28;20195;-76
2021/03/23 01:03:44;;;;;;;6.20;3.00;;;;;11.70;102400.00;;;;5078980;28;20194;-76
2021/03/23 01:06:11;;;;;;;7.03;3.13;;;;;11.70;102399.00;;;;5087098;28;20209;-77
2021/03/23 01:08:38;;;;;;;4.80;2.83;;;;;11.80;102397.00;;;;5087081;28;20209;-77
2021/03/23 01:11:05;;;;;;;5.10;3.10;;;;;11.80;102409.00;;;;5087199;28;20205;-76
2021/03/23 01:13:32;;;;;;;5.07;3.00;;;;;11.80;102406.00;;;;5088454;28;20186;-76
2021/03/23 01:15:58;;;;;;;3.72;2.60;;;;;11.80;102399.00;;;;5086860;28;20194;-76
2021/03/23 01:18:26;;;;;;;4.32;3.05;;;;;11.80;102385.00;;;;5088260;28;20214;-76
2021/03/23 01:20:53;;;;;;;4.72;3.05;;;;;11.90;102388.00;;;;5086841;28;20698;-76
2021/03/23 01:23:19;;;;;;;14.15;3.55;;;;;11.90;102385.00;;;;5083039;28;20198;-76
2021/03/23 01:25:46;;;;;;;6.03;3.47;;;;;11.90;102391.00;;;;5086523;28;20605;-76
2021/03/23 01:28:13;;;;;;;6.75;3.40;;;;;11.90;102381.00;;;;5087447;28;20197;-76
2021/03/23 01:30:40;;;;;;;7.93;3.72;;;;;11.90;102385.00;;;;5079809;28;20202;-76
2021/03/23 01:33:07;;;;;;;7.20;3.85;;;;;12.00;102382.00;;;;5070365;28;20241;-76
2021/03/23 01:35:35;;;;;;;8.50;5.03;;;;;12.00;102383.00;;;;5074168;28;20635;-76
2021/03/23 01:38:02;;;;;;;8.70;5.13;;;;;12.00;102378.00;;;;5067771;28;20227;-76
2021/03/23 01:40:29;;;;;;;8.60;4.55;;;;;12.00;102377.00;;;;5081527;28;20201;-76
2021/03/23 01:42:58;;;;;;;12.27;5.65;;;;;12.10;102373.00;;;;5087834;28;20202;-76
2021/03/23 01:45:33;;;;;;;8.15;4.80;;;;;12.00;102376.00;;;;5083005;28;20202;-77
2021/03/23 01:48:03;;;;;;;9.07;4.88;;;;;12.10;102367.00;;;;5085713;28;20242;-76
2021/03/23 01:50:30;;;;;;;8.65;4.63;;;;;12.10;102370.00;;;;5074636;28;20190;-76
2021/03/23 01:53:06;;;;;;;8.55;4.63;;;;;12.10;102361.00;;;;5087934;28;20202;-76
2021/03/23 01:55:33;;;;;;;6.53;4.15;;;;;12.10;102362.00;;;;5076988;28;20567;-76
2021/03/23 01:58:00;;;;;;;5.95;3.00;;;;;12.10;102359.00;;;;5081200;28;20548;-76
2021/03/23 02:00:27;;;;;;;5.95;3.30;;;;;12.10;102358.00;;;;5081600;28;20186;-76
2021/03/23 02:02:54;;;;;;;8.13;3.50;;;;;12.10;102358.00;;;;5086800;28;20278;-76
2021/03/23 02:05:26;;;;;;;4.50;3.05;;;;;12.10;102364.00;;;;5084166;28;20194;-76
2021/03/23 02:07:56;;;;;;;5.45;3.50;;;;;12.10;102368.00;;;;5090590;28;20221;-76
2021/03/23 02:10:24;;;;;;;5.53;3.00;;;;;12.10;102362.00;;;;5090506;28;20243;-76
2021/03/23 02:12:52;;;;;;;7.10;3.25;;;;;12.10;102361.00;;;;5091470;28;20186;-76
2021/03/23 02:15:21;;;;;;;5.65;3.28;;;;;12.10;102364.00;;;;5090945;28;20225;-76
2021/03/23 02:18:10;;;;;;;5.90;3.47;;;;;12.10;102359.00;;;;5089650;28;20233;-76
2021/03/23 02:20:39;;;;;;;4.72;3.10;;;;;12.10;102352.00;;;;5090013;28;20198;-76
2021/03/23 02:23:09;;;;;;;7.32;3.42;;;;;12.10;102349.00;;;;5090176;28;20194;-76
2021/03/23 02:25:37;;;;;;;4.07;3.05;;;;;12.10;102346.00;;;;5089697;28;20197;-76
2021/03/23 02:28:04;;;;;;;5.32;3.70;;;;;12.10;102346.00;;;;5089443;28;20198;-76
2021/03/23 02:30:35;;;;;;;5.00;3.47;;;;;12.10;102346.00;;;;5083553;28;20712;-76
2021/03/23 02:33:02;;;;;;;4.70;3.30;;;;;12.10;102345.00;;;;5085262;28;20202;-76
2021/03/23 02:35:29;;;;;;;3.08;2.53;;;;;12.20;102342.00;;;;5085979;28;20213;-76
2021/03/23 02:37:56;;;;;;;6.30;3.22;;;;;12.20;102341.00;;;;5084572;28;20824;-77
2021/03/23 02:40:25;;;;;;;3.53;2.78;;;;;12.20;102341.00;;;;5086523;28;20239;-76
2021/03/23 02:42:51;;;;;;;4.05;2.90;;;;;12.20;102333.00;;;;5085259;28;20203;-76
2021/03/23 02:45:18;;;;;;;3.85;2.78;;;;;12.20;102345.00;;;;5084214;28;20687;-76
2021/03/23 02:47:45;;;;;;;3.95;3.08;;;;;12.20;102331.00;;;;5081789;28;20214;-76
2021/03/23 02:50:13;;;;;;;5.57;3.72;;;;;12.20;102331.00;;;;5083657;28;20563;-76
2021/03/23 02:52:40;;;;;;;6.75;3.65;;;;;12.20;102329.00;;;;5088708;28;20206;-76
2021/03/23 02:55:08;;;;;;;8.10;3.22;;;;;12.20;102331.00;;;;5081630;28;20338;-76
2021/03/23 02:57:35;;;;;;;5.13;3.08;;;;;12.20;102324.00;;;;5088359;28;20275;-76
2021/03/23 03:00:03;;;;;;;3.97;3.17;;;;;12.20;102324.00;;;;5088494;28;20205;-76
2021/03/23 03:02:30;;;;;;;5.45;3.40;;;;;12.20;102317.00;;;;5090380;28;20194;-76
2021/03/23 03:04:57;;;;;;;6.78;3.10;;;;;12.20;102316.00;;;;5089541;28;20571;-76
2021/03/23 03:07:24;;;;;;;5.43;3.70;;;;;12.20;102324.00;;;;5089675;28;20296;-76
2021/03/23 03:09:50;;;;;;;5.10;4.07;;;;;12.20;102310.00;;;;5089323;28;20296;-76
2021/03/23 03:12:17;;;;;;;5.38;3.33;;;;;12.20;102322.00;;;;5089205;28;20190;-76
2021/03/23 03:14:45;;;;;;;6.00;3.78;;;;;12.20;102316.00;;;;5090336;28;20190;-76
2021/03/23 03:17:11;;;;;;;5.13;3.00;;;;;12.20;102319.00;;;;5089244;28;20222;-76
2021/03/23 03:19:38;;;;;;;5.38;3.47;;;;;12.20;102314.00;;;;5083040;28;20195;-76
2021/03/23 03:22:05;;;;;;;4.68;3.25;;;;;12.20;102311.00;;;;5072888;28;20229;-76
2021/03/23 03:24:32;;;;;;;4.70;3.67;;;;;12.20;102317.00;;;;5083666;28;20206;-76
2021/03/23 03:26:59;;;;;;;5.15;3.38;;;;;12.10;102312.00;;;;5088306;28;20255;-76
2021/03/23 03:29:25;;;;;;;5.28;3.50;;;;;12.10;102314.00;;;;5088479;28;20256;-76
2021/03/23 03:31:53;;;;;;;5.60;3.92;;;;;12.10;102309.00;;;;5088313;28;20522;-76
2021/03/23 03:34:21;;;;;;;4.05;3.05;;;;;12.10;102307.00;;;;5084745;28;20607;-76
2021/03/23 03:36:47;;;;;;;5.53;3.50;;;;;12.10;102305.00;;;;5088834;28;20233;-76
2021/03/23 03:39:14;;;;;;;4.15;3.13;;;;;12.10;102307.00;;;;5089308;28;20198;-76
2021/03/23 03:41:41;;;;;;;6.03;3.50;;;;;12.10;102304.00;;;;5088807;28;20541;-76
2021/03/23 03:44:08;;;;;;;5.68;3.47;;;;;12.10;102303.00;;;;5088365;28;20278;-76
2021/03/23 03:46:35;;;;;;;4.25;3.30;;;;;12.10;102302.00;;;;5085054;28;20211;-76
2021/03/23 03:49:02;;;;;;;5.13;3.53;;;;;12.10;102299.00;;;;5072106;28;20234;-76
2021/03/23 03:51:29;;;;;;;7.15;3.53;;;;;12.00;102293.00;;;;5083685;28;20187;-76
2021/03/23 03:53:56;;;;;;;6.38;3.72;;;;;12.00;102298.00;;;;5088323;28;20202;-76
2021/03/23 03:56:23;;;;;;;5.40;4.15;;;;;12.00;102301.00;;;;5088753;28;20225;-76
2021/03/23 03:58:50;;;;;;;5.03;3.78;;;;;12.00;102307.00;;;;5088340;28;20690;-76
2021/03/23 04:01:17;;;;;;;5.68;3.63;;;;;12.00;102300.00;;;;5088844;28;20672;-76
2021/03/23 04:03:44;;;;;;;6.35;4.10;;;;;12.00;102300.00;;;;5080311;28;20186;-76
2021/03/23 04:06:11;;;;;;;5.63;3.83;;;;;12.00;102300.00;;;;5082899;28;20288;-76
2021/03/23 04:08:39;;;;;;;5.32;3.75;;;;;12.00;102299.00;;;;5072353;28;20525;-76
2021/03/23 04:11:07;;;;;;;6.22;4.25;;;;;12.00;102303.00;;;;5070968;28;20220;-76
2021/03/23 04:13:34;;;;;;;6.13;3.85;;;;;12.00;102308.00;;;;5086475;28;20194;-76
2021/03/23 04:16:01;;;;;;;6.35;4.00;;;;;12.00;102306.00;;;;5080801;28;20199;-76
2021/03/23 04:18:29;;;;;;;6.57;4.50;;;;;12.00;102304.00;;;;5088612;28;20190;-76
2021/03/23 04:21:00;;;;;;;6.50;4.18;;;;;12.00;102305.00;;;;5083161;28;20256;-76
2021/03/23 04:23:30;;;;;;;6.18;5.03;;;;;12.00;102306.00;;;;5088211;28;20202;-76
2021/03/23 04:25:57;;;;;;;6.55;4.32;;;;;12.00;102309.00;;;;5087665;28;20187;-76
2021/03/23 04:28:24;;;;;;;6.40;4.03;;;;;12.00;102309.00;;;;5088234;28;20239;-76
2021/03/23 04:30:52;;;;;;;6.20;4.25;;;;;12.00;102308.00;;;;5082493;28;20194;-76
2021/03/23 04:33:21;;;;;;;5.85;4.25;;;;;12.00;102315.00;;;;5088680;28;20198;-76
2021/03/23 04:35:50;;;;;;;4.70;3.28;;;;;12.00;102310.00;;;;5086346;28;20259;-76
2021/03/23 04:38:18;;;;;;;8.70;4.45;;;;;12.00;102310.00;;;;5088103;28;20734;-77
2021/03/23 04:40:46;;;;;;;6.97;4.05;;;;;12.00;102311.00;;;;5083700;28;20744;-76
2021/03/23 04:43:19;;;;;;;6.35;4.50;;;;;12.00;102320.00;;;;5089266;28;20294;-76
2021/03/23 04:45:46;;;;;;;7.80;4.22;;;;;12.10;102321.00;;;;5088148;28;20206;-76
2021/03/23 04:48:13;;;;;;;5.45;4.13;;;;;12.00;102318.00;;;;5075290;28;20233;-76
2021/03/23 04:50:40;;;;;;;5.82;4.47;;;;;12.00;102326.00;;;;5085132;28;20198;-76
2021/03/23 04:53:07;;;;;;;8.77;4.93;;;;;12.10;102325.00;;;;5087391;28;20186;-76
2021/03/23 04:55:34;;;;;;;6.10;4.47;;;;;12.10;102316.00;;;;5084647;28;20209;-76
2021/03/23 04:58:01;;;;;;;7.60;4.95;;;;;12.10;102310.00;;;;5076459;28;20222;-76
2021/03/23 05:00:28;;;;;;;7.18;4.47;;;;;12.10;102321.00;;;;5086907;28;20334;-76
2021/03/23 05:02:55;;;;;;;7.68;4.80;;;;;12.10;102320.00;;;;5086622;28;20194;-76
2021/03/23 05:05:22;;;;;;;7.95;4.80;;;;;12.10;102315.00;;;;5083277;28;20198;-76
2021/03/23 05:07:49;;;;;;;8.98;4.65;;;;;12.00;102312.00;;;;5088754;28;20233;-76
2021/03/23 05:10:15;;;;;;;6.82;5.22;;;;;12.00;102318.00;;;;5086612;28;20198;-76
2021/03/23 05:12:42;;;;;;;6.72;5.20;;;;;12.00;102324.00;;;;5084309;28;20210;-76
2021/03/23 05:15:11;;;;;;;7.20;5.07;;;;;12.00;102312.00;;;;5086856;28;20255;-76
2021/03/23 05:17:38;;;;;;;6.38;4.70;;;;;12.00;102321.00;;;;5078802;28;20956;-76
2021/03/23 05:20:06;;;;;;;8.82;5.32;;;;;12.00;102318.00;;;;5074600;28;20202;-75
2021/03/23 05:22:33;;;;;;;8.13;5.32;;;;;12.00;102318.00;;;;5083285;28;20210;-76
2021/03/23 05:25:00;;;;;;;8.90;4.95;;;;;12.00;102314.00;;;;5067111;28;20201;-76
2021/03/23 05:27:27;;;;;;;8.35;4.75;;;;;12.00;102304.00;;;;5087048;28;20194;-76
2021/03/23 05:29:53;;;;;;;6.82;4.70;;;;;11.90;102305.00;;;;5080998;28;20205;-76
2021/03/23 05:32:21;;;;;;;10.15;5.15;;;;;11.90;102308.00;;;;5082209;28;20664;-76
2021/03/23 05:34:48;;;;;;;8.32;4.22;;;;;11.90;102312.00;;;;5074068;28;20203;-76
2021/03/23 05:37:14;;;;;;;7.15;4.72;;;;;11.90;102312.00;;;;5066957;28;20704;-76
2021/03/23 05:39:41;;;;;;;9.60;5.45;;;;;11.80;102309.00;;;;5074292;28;20195;-76
2021/03/23 05:42:15;;;;;;;10.57;6.25;;;;;11.80;102314.00;;;;5090307;28;20201;-76
2021/03/23 05:45:07;;;;;;;10.13;6.63;;;;;11.70;102318.00;;;;5087759;28;20186;-75
2021/03/23 05:47:38;;;;;;;10.93;7.20;;;;;11.80;102325.00;;;;5071476;28;20295;-76
2021/03/23 05:50:17;;;;;;;12.13;7.28;;;;;11.80;102321.00;;;;5079894;28;20239;-76
2021/03/23 05:52:49;;;;;;;12.48;7.25;;;;;11.80;102320.00;;;;5087624;28;20238;-76
2021/03/23 05:55:31;;;;;;;11.40;7.05;;;;;11.80;102326.00;;;;5083528;28;20202;-76
2021/03/23 05:58:00;;;;;;;11.98;7.35;;;;;11.90;102326.00;;;;5078762;28;20240;-77
2021/03/23 06:00:32;;;;;;;11.27;7.47;;;;;11.90;102317.00;;;;5076690;28;20194;-79
2021/03/23 06:03:06;;;;;;;14.10;7.38;;;;;11.90;102318.00;;;;5073018;28;20191;-77
2021/03/23 06:05:45;;;;;;;11.88;8.27;;;;;12.00;102322.00;;;;5075211;28;20245;-80
2021/03/23 06:08:24;;;;;;;13.05;7.63;;;;;12.00;102321.00;;;;5071688;28;20643;-77
2021/03/23 06:11:02;;;;;;;13.80;8.23;;;;;12.10;102322.00;;;;5081110;28;20267;-78
2021/03/23 06:13:32;;;;;;;12.50;7.95;;;;;12.10;102333.00;;;;5080699;28;20206;-78
2021/03/23 06:16:12;;;;;;;16.40;9.05;;;;;12.10;102332.00;;;;5087895;28;20186;-78
2021/03/23 06:18:46;;;;;;;13.70;8.48;;;;;12.20;102330.00;;;;5090788;28;20190;-78
2021/03/23 06:21:19;;;;;;;13.70;7.88;;;;;12.20;102330.00;;;;5089056;28;20728;-77
2021/03/23 06:24:07;;;;;;;14.45;8.45;;;;;12.20;102332.00;;;;5092725;28;20190;-78
2021/03/23 06:26:42;;;;;;;13.77;9.05;;;;;12.20;102329.00;;;;5094812;28;20216;-77
2021/03/23 06:29:23;;;;;;;16.10;9.10;;;;;12.20;102332.00;;;;5095728;28;20212;-78
2021/03/23 06:32:03;;;;;;;16.75;9.20;;;;;12.30;102332.00;;;;5090643;28;20202;-78
2021/03/23 06:34:33;;;;;;;15.60;9.60;;;;;12.30;102332.00;;;;5091343;28;20198;-78
2021/03/23 06:37:01;;;;;;;15.18;8.95;;;;;12.40;102339.00;;;;5086861;28;20222;-78
2021/03/23 06:39:30;;;;;;;19.40;10.45;;;;;12.40;102343.00;;;;5088613;28;20217;-78
2021/03/23 06:42:00;;;;;;;18.38;9.82;;;;;12.40;102348.00;;;;5087619;28;20669;-78
2021/03/23 06:44:30;;;;;;;18.33;8.98;;;;;12.40;102342.00;;;;5092276;28;20202;-78
2021/03/23 06:46:58;;;;;;;17.85;9.98;;;;;12.50;102341.00;;;;5090232;28;20965;-78
2021/03/23 06:49:32;;;;;;;19.15;9.77;;;;;12.50;102347.00;;;;5086045;28;20676;-78
2021/03/23 06:52:06;;;;;;;23.15;11.68;;;;;12.50;102350.00;;;;5089039;28;20705;-78
2021/03/23 06:54:35;;;;;;;23.30;11.52;;;;;12.50;102355.00;;;;5090300;28;20195;-78
2021/03/23 06:57:04;;;;;;;21.35;10.55;;;;;12.50;102358.00;;;;5080448;28;20580;-78
2021/03/23 06:59:33;;;;;;;22.50;11.38;;;;;12.50;102359.00;;;;5074687;28;20531;-78
2021/03/23 07:02:03;;;;;;;23.23;10.88;;;;;12.50;102365.00;;;;5070397;28;20284;-78
2021/03/23 07:04:34;;;;;;;18.95;9.65;;;;;12.50;102360.00;;;;5085336;28;20217;-78
2021/03/23 07:07:14;;;;;;;22.00;10.40;;;;;12.50;102367.00;;;;5077567;28;20197;-78
2021/03/23 07:09:50;;;;;;;20.58;11.27;;;;;12.50;102361.00;;;;5081273;28;20203;-78
2021/03/23 07:12:18;;;;;;;26.70;11.52;;;;;12.60;102369.00;;;;5077136;28;20201;-78
2021/03/23 07:14:47;;;;;;;24.98;10.48;;;;;12.60;102372.00;;;;5073956;28;20571;-78
2021/03/23 07:17:29;;;;;;;20.85;11.13;;;;;12.60;102372.00;;;;5069596;28;20219;-78
2021/03/23 07:20:00;;;;;;;20.02;10.98;;;;;12.60;102364.00;;;;5089538;28;20339;-78
2021/03/23 07:22:45;;;;;;;20.05;9.68;;;;;12.60;102385.00;;;;5089297;28;20691;-78
2021/03/23 07:25:40;;;;;;;24.15;11.32;;;;;12.60;102384.00;;;;5089613;28;20239;-78
2021/03/23 07:28:20;;;;;;;18.58;9.48;;;;;12.70;102389.00;;;;5053871;28;20608;-78
2021/03/23 07:30:53;;;;;;;20.83;10.75;;;;;12.70;102390.00;;;;5089303;28;20992;-78
2021/03/23 07:33:35;;;;;;;22.02;10.73;;;;;12.70;102400.00;;;;5089585;28;20652;-78
2021/03/23 07:36:04;;;;;;;23.58;11.18;;;;;12.70;102393.00;;;;5089916;28;20536;-78
2021/03/23 07:38:37;;;;;;;20.67;11.15;;;;;12.70;102397.00;;;;5090078;28;20234;-78
2021/03/23 07:41:06;;;;;;;24.65;11.27;;;;;12.80;102396.00;;;;5090055;28;20278;-79
2021/03/23 07:43:47;;;;;;;28.33;13.50;;;;;12.70;102385.00;;;;5090034;28;20195;-78
2021/03/23 07:46:19;;;;;;;21.83;10.73;;;;;12.80;102387.00;;;;5089740;28;20202;-78
2021/03/23 07:48:52;;;;;;;23.08;11.88;;;;;12.80;102393.00;;;;5089695;28;20238;-78
2021/03/23 07:51:30;;;;;;;21.85;12.02;;;;;12.90;102390.00;;;;5089626;28;20686;-79
2021/03/23 07:54:27;;;;;;;20.63;10.95;;;;;12.90;102395.00;;;;5088816;28;20213;-79
2021/03/23 07:57:09;;;;;;;22.80;11.82;;;;;13.00;102378.00;;;;5065393;28;20286;-79
2021/03/23 08:00:04;;;;;;;24.85;10.93;;;;;13.00;102388.00;;;;5089683;28;20648;-78
2021/03/23 08:02:56;;;;;;;23.17;10.68;;;;;13.10;102383.00;;;;5080121;28;20731;-80
2021/03/23 08:05:33;;;;;;;22.75;11.82;;;;;13.20;102375.00;;;;5085247;28;20190;-79
2021/03/23 08:08:14;;;;;;;25.77;11.65;;;;;13.20;102376.00;;;;5083358;28;20194;-78
2021/03/23 08:10:52;;;;;;;20.27;11.32;;;;;13.30;102381.00;;;;5086949;28;20652;-78
2021/03/23 08:13:40;;;;;;;21.92;12.40;;;;;13.40;102375.00;;;;5087432;28;20209;-78
2021/03/23 08:16:29;;;;;;;22.20;12.25;;;;;13.30;102368.00;;;;5089338;28;20560;-78
2021/03/23 08:19:27;;;;;;;21.05;10.43;;;;;13.40;102382.00;;;;5085946;28;20658;-78
2021/03/23 08:22:35;;;;;;;29.73;13.88;;;;;13.40;102391.00;;;;5078191;28;20627;-78
2021/03/23 08:25:12;;;;;;;21.15;11.85;;;;;13.40;102377.00;;;;5086647;28;20198;-78
2021/03/23 08:28:03;;;;;;;24.17;12.85;;;;;13.40;102387.00;;;;5087937;28;20194;-77
2021/03/23 08:30:41;;;;;;;21.20;10.30;;;;;13.50;102385.00;;;;5079827;28;20191;-78
2021/03/23 08:33:32;;;;;;;24.17;12.15;;;;;13.50;102388.00;;;;5084756;28;20202;-78
2021/03/23 08:36:16;;;;;;;23.58;11.60;;;;;13.50;102378.00;;;;5076383;28;20247;-78
2021/03/23 08:38:56;;;;;;;21.08;11.25;;;;;13.60;102375.00;;;;5084994;28;20243;-78
2021/03/23 08:41:32;;;;;;;25.33;11.70;;;;;13.70;102376.00;;;;5076823;28;20277;-78
2021/03/23 08:43:59;;;;;;;23.75;12.70;;;;;13.80;102378.00;;;;5078614;28;20252;-78
2021/03/23 08:46:29;;;;;;;21.33;11.52;;;;;13.80;102382.00;;;;5084674;28;20209;-78
2021/03/23 08:48:59;;;;;;;20.73;11.25;;;;;13.90;102384.00;;;;5087340;28;20237;-77
2021/03/23 08:51:28;;;;;;;22.48;12.88;;;;;13.90;102387.00;;;;5068276;28;20198;-77
2021/03/23 08:53:58;;;;;;;22.40;12.50;;;;;14.00;102388.00;;;;5068548;28;20199;-78
2021/03/23 08:56:59;;;;;;;25.65;13.40;;;;;13.90;102383.00;;;;5087859;28;20226;-78
2021/03/23 08:59:52;;;;;;;21.92;12.25;;;;;13.90;102386.00;;;;5052785;28;20208;-78
2021/03/23 09:02:39;;;;;;;19.70;11.50;;;;;13.90;102394.00;;;;5073836;28;20636;-78
2021/03/23 09:05:27;;;;;;;18.45;11.45;;;;;14.00;102386.00;;;;5084760;28;20224;-78
2021/03/23 09:08:18;;;;;;;21.73;12.38;;;;;14.10;102378.00;;;;5078708;28;20197;-79
2021/03/23 09:10:55;;;;;;;24.08;13.30;;;;;14.10;102389.00;;;;5079920;28;20271;-78
2021/03/23 09:14:15;;;;;;;22.02;11.63;;;;;14.20;102390.00;;;;5076909;28;20239;-79
2021/03/23 09:17:15;;;;;;;26.13;12.68;;;;;14.30;102399.00;;;;5085691;28;20194;-78
2021/03/23 09:19:53;;;;;;;20.90;11.00;;;;;14.30;102414.00;;;;5078602;28;20225;-78
2021/03/23 09:22:36;;;;;;;25.90;12.98;;;;;14.40;102410.00;;;;5085957;28;20214;-78
2021/03/23 09:25:49;;;;;;;22.55;12.50;;;;;14.30;102412.00;;;;5081434;28;20202;-78
2021/03/23 09:28:44;;;;;;;22.80;11.30;;;;;14.40;102420.00;;;;5079237;28;20665;-79
2021/03/23 09:31:14;;;;;;;21.50;11.77;;;;;14.50;102420.00;;;;5070449;28;20771;-78
2021/03/23 09:33:43;;;;;;;20.40;11.30;;;;;14.50;102413.00;;;;5085941;28;20699;-79
2021/03/23 09:36:38;;;;;;;22.70;12.30;;;;;14.50;102404.00;;;;5086279;28;20656;-78
2021/03/23 09:39:42;;;;;;;23.35;11.65;;;;;14.60;102400.00;;;;5074222;28;20202;-79
2021/03/23 09:42:35;;;;;;;23.85;13.10;;;;;14.60;102410.00;;;;5086548;28;20812;-79
2021/03/23 09:45:28;;;;;;;22.02;11.93;;;;;14.70;102405.00;;;;5086190;28;20202;-79
2021/03/23 09:48:02;;;;;;;19.42;11.55;;;;;14.80;102415.00;;;;5085426;28;20241;-79
2021/03/23 09:50:34;;;;;;;23.42;12.38;;;;;14.90;102416.00;;;;5086792;28;20652;-78
2021/03/23 09:53:15;;;;;;;28.42;13.32;;;;;14.90;102412.00;;;;5087808;28;20204;-79
2021/03/23 09:55:42;;;;;;;20.77;11.40;;;;;15.10;102419.00;;;;5085915;28;20233;-79
2021/03/23 09:58:20;;;;;;;28.60;13.85;;;;;15.10;102423.00;;;;5087280;28;20229;-78
2021/03/23 10:00:47;;;;;;;23.08;11.43;;;;;15.30;102427.00;;;;5087417;28;20205;-77
2021/03/23 10:03:41;;;;;;;23.42;13.05;;;;;15.20;102430.00;;;;5086554;28;20572;-77
2021/03/23 10:06:10;;;;;;;22.23;12.10;;;;;15.40;102421.00;;;;5085855;28;20199;-78
2021/03/23 10:08:37;;;;;;;25.73;14.00;;;;;15.40;102424.00;;;;5079231;28;20251;-78
2021/03/23 10:11:10;;;;;;;30.38;14.02;;;;;15.40;102424.00;;;;5085775;28;20263;-78
2021/03/23 10:13:43;;;;;;;24.50;13.35;;;;;15.40;102425.00;;;;5085865;28;20723;-79
2021/03/23 10:16:26;;;;;;;24.95;14.23;;;;;15.30;102414.00;;;;5087145;28;20206;-77
2021/03/23 10:18:53;;;;;;;21.27;12.60;;;;;15.40;102411.00;;;;5086694;28;20218;-78
2021/03/23 10:21:27;;;;;;;21.25;11.82;;;;;15.30;102404.00;;;;5084611;28;20202;-78
2021/03/23 10:23:56;;;;;;;23.95;13.25;;;;;15.40;102404.00;;;;5077436;28;20199;-78
2021/03/23 10:26:26;;;;;;;22.15;12.07;;;;;15.40;102416.00;;;;5075351;28;20259;-79
2021/03/23 10:28:55;;;;;;;24.52;12.90;;;;;15.40;102409.00;;;;5089257;28;20204;-77
2021/03/23 10:31:35;;;;;;;24.55;12.15;;;;;15.30;102410.00;;;;5088209;28;20728;-79
2021/03/23 10:34:09;;;;;;;27.05;13.55;;;;;15.40;102413.00;;;;5089829;28;20213;-78
2021/03/23 10:36:49;;;;;;;27.55;13.55;;;;;15.40;102423.00;;;;5088011;28;20217;-78
2021/03/23 10:39:47;;;;;;;25.58;13.43;;;;;15.30;102418.00;;;;5089363;28;20335;-78
2021/03/23 10:42:22;;;;;;;19.17;11.57;;;;;15.50;102413.00;;;;5089381;28;20314;-78
2021/03/23 10:44:50;;;;;;;26.88;13.20;;;;;15.50;102421.00;;;;5089431;28;20205;-79
2021/03/23 10:47:32;;;;;;;26.23;14.05;;;;;15.50;102418.00;;;;5088432;28;20194;-78
2021/03/23 10:50:17;;;;;;;25.60;12.98;;;;;15.50;102422.00;;;;5079744;28;20206;-78
2021/03/23 10:52:44;;;;;;;26.27;13.90;;;;;15.60;102416.00;;;;5083206;28;20194;-79
2021/03/23 10:55:14;;;;;;;23.17;13.13;;;;;15.60;102415.00;;;;5088900;28;20221;-78
2021/03/23 10:57:40;;;;;;;26.48;13.20;;;;;15.70;102411.00;;;;5088866;28;20229;-77
2021/03/23 11:00:22;;;;;;;21.80;12.18;;;;;15.70;102408.00;;;;5087917;28;20202;-77
2021/03/23 11:02:50;;;;;;;20.95;12.15;;;;;15.90;102415.00;;;;5089817;28;20233;-77
2021/03/23 11:05:19;;;;;;;23.95;11.85;;;;;15.90;102411.00;;;;5083787;28;20195;-78
2021/03/23 11:08:00;;;;;;;24.35;13.60;;;;;15.90;102419.00;;;;5085432;28;20268;-77
2021/03/23 11:10:29;;;;;;;23.50;13.05;;;;;16.00;102402.00;;;;5070457;28;20202;-77
2021/03/23 11:12:56;;;;;;;23.80;13.25;;;;;16.10;102405.00;;;;5077491;28;20679;-77
2021/03/23 11:15:24;;;;;;;19.95;13.18;;;;;16.20;102403.00;;;;5088880;28;20190;-78
2021/03/23 11:17:53;;;;;;;21.80;13.63;;;;;16.30;102404.00;;;;5086241;28;20222;-78
2021/03/23 11:20:28;;;;;;;19.98;12.57;;;;;16.30;102406.00;;;;5089134;28;20202;-78
2021/03/23 11:22:56;;;;;;;20.30;13.00;;;;;16.40;102403.00;;;;5087975;28;20198;-77
2021/03/23 11:25:26;;;;;;;23.02;14.15;;;;;16.40;102411.00;;;;5088173;28;20198;-78
2021/03/23 11:27:54;;;;;;;21.23;14.30;;;;;16.40;102409.00;;;;5088083;28;20622;-79
2021/03/23 11:30:22;;;;;;;27.25;14.60;;;;;16.50;102410.00;;;;5089008;28;20263;-80
2021/03/23 11:32:49;;;;;;;21.55;14.27;;;;;16.50;102414.00;;;;5087954;28;20191;-79
2021/03/23 11:35:17;;;;;;;24.40;15.27;;;;;16.60;102408.00;;;;5087930;28;20668;-80
2021/03/23 11:37:44;;;;;;;21.95;14.00;;;;;16.60;102399.00;;;;5086955;28;20305;-79
2021/03/23 11:40:12;;;;;;;28.63;14.13;;;;;16.50;102400.00;;;;5087319;28;20194;-79
2021/03/23 11:42:43;;;;;;;22.50;12.45;;;;;16.60;102390.00;;;;5084728;28;20667;-79
2021/03/23 11:45:21;;;;;;;23.13;13.48;;;;;16.60;102388.00;;;;5089306;28;20208;-79
2021/03/23 11:47:55;;;;;;;24.77;14.25;;;;;16.70;102391.00;;;;5087576;28;20202;-79
2021/03/23 11:50:25;;;;;;;21.38;13.45;;;;;16.70;102388.00;;;;5088068;28;20195;-80
2021/03/23 11:52:53;;;;;;;20.50;13.50;;;;;16.80;102398.00;;;;5087414;28;20270;-79
2021/03/23 11:55:24;;;;;;;26.38;13.63;;;;;16.90;102398.00;;;;5088506;28;20263;-78
2021/03/23 11:57:51;;;;;;;26.95;14.77;;;;;17.00;102393.00;;;;5088105;28;20238;-79
2021/03/23 12:00:21;;;;;;;23.48;14.20;;;;;17.00;102397.00;;;;5088820;28;20209;-79
2021/03/23 12:02:48;;;;;;;25.95;14.40;;;;;17.10;102391.00;;;;5087128;28;20569;-78
2021/03/23 12:05:16;;;;;;;23.77;14.50;;;;;17.10;102388.00;;;;5086325;28;20194;-78
2021/03/23 12:08:09;;;;;;;28.73;14.10;;;;;17.10;102386.00;;;;5076928;28;20668;-78
2021/03/23 12:10:40;;;;;;;25.48;13.95;;;;;17.10;102387.00;;;;5062534;28;20202;-78
2021/03/23 12:13:13;;;;;;;24.58;13.45;;;;;17.20;102395.00;;;;5089150;28;20202;-78
2021/03/23 12:15:43;;;;;;;22.55;13.55;;;;;17.20;102394.00;;;;5087941;28;20187;-80
2021/03/23 12:18:14;;;;;;;24.48;13.70;;;;;17.20;102398.00;;;;5087055;28;20232;-79
2021/03/23 12:20:41;;;;;;;25.17;13.25;;;;;17.20;102392.00;;;;5087910;28;20232;-79
2021/03/23 12:23:09;;;;;;;27.05;14.52;;;;;17.10;102383.00;;;;5083644;28;20201;-78
2021/03/23 12:25:37;;;;;;;21.90;12.88;;;;;17.10;102381.00;;;;5089367;28;20694;-79
2021/03/23 12:28:04;;;;;;;22.52;12.30;;;;;17.10;102391.00;;;;5089212;28;20327;-79